Time;durP1;ratioP1;P1;durP2;ratioP2;P2;SDS_P1;SDS_P2;PMS_P1;PMS_P2;Temp;Humidity;BMP_temperature;BMP_pressure;BME280_temperature;BME280_humidity;BME280_pressure;Samples;Min_cycle;Max_cycle;Signal;HPM_P1;HPM_P2
2021/12/25 00:01:14;;;;;;;2.85;1.00;;;;;;;;;;5034046;28;20120;-77
2021/12/25 00:03:40;;;;;;;2.35;1.00;;;;;;;;;;5033399;28;20028;-78
2021/12/25 00:06:06;;;;;;;3.15;1.23;;;;;;;;;;5035462;28;20022;-78
2021/12/25 00:08:33;;;;;;;2.95;1.20;;;;;;;;;;5033738;28;20053;-78
2021/12/25 00:10:59;;;;;;;2.67;1.10;;;;;;;;;;5035515;28;20036;-78
2021/12/25 00:13:25;;;;;;;3.20;1.00;;;;;;;;;;5035199;28;20104;-77
2021/12/25 00:15:52;;;;;;;2.35;0.90;;;;;;;;;;5035064;28;20022;-78
2021/12/25 00:18:21;;;;;;;1.92;0.90;;;;;;;;;;5033138;28;20029;-78
2021/12/25 00:20:47;;;;;;;3.00;1.13;;;;;;;;;;5034856;28;20443;-77
2021/12/25 00:23:13;;;;;;;2.85;1.15;;;;;;;;;;5034526;28;20186;-78
2021/12/25 00:25:44;;;;;;;2.67;0.90;;;;;;;;;;5033391;28;20071;-77
2021/12/25 00:31:25;;;;;;;3.03;1.17;;;;;;;;;;5031980;28;20034;-77
2021/12/25 00:33:53;;;;;;;3.03;1.10;;;;;;;;;;5011778;28;20045;-77
2021/12/25 00:36:21;;;;;;;3.05;1.10;;;;;;;;;;5019352;28;20052;-77
2021/12/25 00:38:47;;;;;;;2.15;1.00;;;;;;;;;;5026133;28;20083;-76
2021/12/25 00:41:15;;;;;;;2.67;1.10;;;;;;;;;;5030549;28;20124;-78
2021/12/25 00:43:41;;;;;;;2.53;1.10;;;;;;;;;;5031257;28;20036;-76
2021/12/25 00:46:07;;;;;;;2.40;1.00;;;;;;;;;;5031578;28;20033;-77
2021/12/25 00:48:33;;;;;;;3.03;1.15;;;;;;;;;;5030071;28;20029;-76
2021/12/25 00:50:59;;;;;;;2.13;1.00;;;;;;;;;;5031278;28;20069;-76
2021/12/25 00:53:25;;;;;;;3.17;1.20;;;;;;;;;;5031554;28;20076;-76
2021/12/25 00:55:52;;;;;;;2.80;1.10;;;;;;;;;;5026411;28;20349;-77
2021/12/25 00:58:18;;;;;;;2.90;1.10;;;;;;;;;;5020353;28;20021;-76
2021/12/25 01:00:44;;;;;;;2.13;1.05;;;;;;;;;;5031006;28;20047;-76
2021/12/25 01:03:11;;;;;;;3.15;1.30;;;;;;;;;;5031317;28;20048;-77
2021/12/25 01:05:37;;;;;;;3.60;1.33;;;;;;;;;;5031840;28;20021;-77
2021/12/25 01:08:05;;;;;;;2.55;1.00;;;;;;;;;;5040258;28;20031;-77
2021/12/25 01:10:33;;;;;;;2.67;1.10;;;;;;;;;;5043624;28;20033;-76
2021/12/25 01:13:09;;;;;;;2.60;1.00;;;;;;;;;;5036784;28;20029;-77
2021/12/25 01:29:33;;;;;;;2.03;0.80;;;;;;;;;;4978541;28;20042;-76
2021/12/25 01:39:48;;;;;;;2.08;0.80;;;;;;;;;;5031252;28;20041;-76
2021/12/25 01:47:55;;;;;;;3.37;0.90;;;;;;;;;;4964104;28;20066;-75
2021/12/25 01:50:25;;;;;;;2.65;1.10;;;;;;;;;;5018518;28;20037;-76
2021/12/25 01:52:52;;;;;;;2.35;0.80;;;;;;;;;;5031344;28;20518;-76
2021/12/25 01:55:24;;;;;;;2.55;1.10;;;;;;;;;;5031473;28;20040;-77
2021/12/25 01:57:50;;;;;;;2.35;1.00;;;;;;;;;;5030784;28;20030;-77
2021/12/25 02:00:21;;;;;;;2.08;0.93;;;;;;;;;;5031385;28;20022;-76
2021/12/25 02:02:47;;;;;;;2.60;1.23;;;;;;;;;;5031350;28;20358;-77
2021/12/25 02:05:13;;;;;;;3.30;1.02;;;;;;;;;;5031054;28;20452;-77
2021/12/25 02:07:39;;;;;;;2.08;0.80;;;;;;;;;;5030978;28;20049;-77
2021/12/25 02:10:07;;;;;;;2.40;1.00;;;;;;;;;;5032166;28;20105;-76
2021/12/25 02:12:33;;;;;;;3.28;1.15;;;;;;;;;;5028501;28;20132;-76
2021/12/25 02:15:06;;;;;;;3.40;0.90;;;;;;;;;;5033594;28;20033;-76
2021/12/25 02:17:52;;;;;;;2.17;1.00;;;;;;;;;;5032900;28;20064;-76
2021/12/25 02:20:29;;;;;;;2.83;1.02;;;;;;;;;;5033840;28;20051;-76
2021/12/25 02:23:00;;;;;;;2.17;0.90;;;;;;;;;;5034046;28;20072;-77
2021/12/25 02:25:27;;;;;;;3.13;1.30;;;;;;;;;;5034534;28;20030;-77
2021/12/25 02:27:53;;;;;;;2.88;1.15;;;;;;;;;;5034878;28;20547;-77
2021/12/25 02:30:19;;;;;;;3.17;1.25;;;;;;;;;;5035026;28;20029;-77
2021/12/25 02:32:46;;;;;;;3.80;1.75;;;;;;;;;;5035626;28;20025;-76
2021/12/25 02:35:13;;;;;;;3.95;1.92;;;;;;;;;;5034878;28;20048;-77
2021/12/25 02:37:40;;;;;;;4.63;1.95;;;;;;;;;;5034570;28;20031;-76
2021/12/25 02:40:07;;;;;;;4.32;2.00;;;;;;;;;;5034765;28;20047;-77
2021/12/25 02:42:34;;;;;;;3.58;1.60;;;;;;;;;;5034960;28;20463;-77
2021/12/25 02:45:00;;;;;;;5.47;2.15;;;;;;;;;;5035342;28;20048;-78
2021/12/25 02:47:29;;;;;;;4.72;1.73;;;;;;;;;;5036252;28;20040;-78
2021/12/25 02:49:55;;;;;;;4.60;2.17;;;;;;;;;;5035548;28;20384;-79
2021/12/25 02:52:22;;;;;;;5.30;1.85;;;;;;;;;;5036414;28;20101;-79
2021/12/25 02:54:48;;;;;;;4.65;2.33;;;;;;;;;;5036893;28;20037;-78
2021/12/25 02:57:14;;;;;;;5.40;2.83;;;;;;;;;;5036833;28;20029;-79
2021/12/25 02:59:41;;;;;;;5.20;2.90;;;;;;;;;;5036445;28;20036;-79
2021/12/25 03:02:08;;;;;;;4.93;2.45;;;;;;;;;;5035189;28;20026;-79
2021/12/25 03:04:35;;;;;;;5.25;2.75;;;;;;;;;;5035848;28;20128;-78
2021/12/25 03:07:01;;;;;;;4.88;2.38;;;;;;;;;;5036784;28;20380;-79
2021/12/25 03:09:27;;;;;;;5.55;2.50;;;;;;;;;;5034933;28;20017;-78
2021/12/25 03:11:53;;;;;;;5.93;2.88;;;;;;;;;;5032015;28;20093;-78
2021/12/25 03:15:01;;;;;;;5.60;2.50;;;;;;;;;;5019475;28;20139;-78
2021/12/25 03:17:06;;;;;;;4.80;2.50;;;;;;;;;;5020866;28;20034;-78
2021/12/25 03:19:33;;;;;;;5.47;2.58;;;;;;;;;;5034748;28;20522;-78
2021/12/25 03:22:00;;;;;;;6.25;3.30;;;;;;;;;;5034912;28;20018;-77
2021/12/25 03:24:27;;;;;;;6.38;2.85;;;;;;;;;;5033831;28;20021;-78
2021/12/25 03:26:55;;;;;;;5.65;2.95;;;;;;;;;;5035972;28;20025;-78
2021/12/25 03:29:22;;;;;;;7.38;4.13;;;;;;;;;;5036240;28;20017;-78
2021/12/25 03:31:49;;;;;;;5.97;3.45;;;;;;;;;;5036167;28;20400;-78
2021/12/25 03:34:15;;;;;;;6.20;3.03;;;;;;;;;;5015527;28;20026;-78
2021/12/25 03:36:41;;;;;;;5.57;2.85;;;;;;;;;;5031016;28;20439;-77
2021/12/25 03:39:07;;;;;;;5.38;3.00;;;;;;;;;;5034836;28;20029;-78
2021/12/25 03:41:33;;;;;;;6.00;3.03;;;;;;;;;;5034264;28;20078;-78
2021/12/25 03:44:01;;;;;;;5.93;2.95;;;;;;;;;;5034431;28;20088;-78
2021/12/25 03:46:29;;;;;;;6.15;2.95;;;;;;;;;;5033514;28;20037;-78
2021/12/25 03:59:36;;;;;;;4.88;2.38;;;;;;;;;;5033354;28;20045;-78
2021/12/25 04:02:08;;;;;;;4.72;2.63;;;;;;;;;;5034013;28;20025;-78
2021/12/25 04:04:37;;;;;;;4.93;2.67;;;;;;;;;;5033870;28;20055;-78
2021/12/25 04:07:10;;;;;;;4.72;2.50;;;;;;;;;;5033521;28;20987;-77
2021/12/25 04:09:38;;;;;;;5.95;2.85;;;;;;;;;;5034697;28;20498;-78
2021/12/25 04:12:05;;;;;;;5.20;2.50;;;;;;;;;;5035795;28;20025;-78
2021/12/25 04:14:31;;;;;;;5.13;2.60;;;;;;;;;;5026589;28;20035;-78
2021/12/25 04:16:57;;;;;;;6.60;3.50;;;;;;;;;;5035220;28;20025;-78
2021/12/25 04:19:23;;;;;;;5.20;3.00;;;;;;;;;;5039459;28;20033;-78
2021/12/25 04:21:57;;;;;;;5.70;2.90;;;;;;;;;;5032938;28;20028;-78
2021/12/25 04:24:24;;;;;;;6.57;3.25;;;;;;;;;;5030663;28;20384;-78
2021/12/25 04:26:51;;;;;;;5.97;3.10;;;;;;;;;;5033708;28;20072;-78
2021/12/25 04:32:29;;;;;;;6.82;3.20;;;;;;;;;;5034919;28;20044;-78
2021/12/25 05:04:15;;;;;;;7.05;4.22;;;;;;;;;;5033264;28;20029;-78
2021/12/25 05:06:41;;;;;;;6.50;4.30;;;;;;;;;;5031337;28;20018;-77
2021/12/25 05:09:07;;;;;;;7.28;4.47;;;;;;;;;;5023162;28;20462;-77
2021/12/25 05:11:33;;;;;;;6.55;4.43;;;;;;;;;;5032930;28;20038;-77
2021/12/25 05:13:59;;;;;;;8.30;4.55;;;;;;;;;;5032795;28;20052;-77
2021/12/25 05:16:26;;;;;;;7.38;4.70;;;;;;;;;;5030608;28;20083;-77
2021/12/25 05:18:52;;;;;;;6.40;4.13;;;;;;;;;;5023771;28;20017;-77
2021/12/25 05:21:19;;;;;;;6.45;3.97;;;;;;;;;;5030138;28;20018;-77
2021/12/25 05:23:45;;;;;;;7.18;4.38;;;;;;;;;;5011470;28;20424;-77
2021/12/25 05:26:11;;;;;;;7.15;4.50;;;;;;;;;;5013862;28;20145;-77
2021/12/25 05:28:43;;;;;;;8.35;4.60;;;;;;;;;;5029839;28;20089;-77
2021/12/25 05:31:11;;;;;;;8.68;5.65;;;;;;;;;;5030274;28;20075;-77
2021/12/25 05:33:37;;;;;;;15.63;9.13;;;;;;;;;;5030115;28;20017;-77
2021/12/25 05:36:03;;;;;;;11.23;6.35;;;;;;;;;;5025516;28;20502;-77
2021/12/25 05:38:29;;;;;;;16.33;9.18;;;;;;;;;;5019884;28;20075;-77
2021/12/25 05:40:55;;;;;;;20.05;11.68;;;;;;;;;;5029806;28;20487;-77
2021/12/25 05:43:22;;;;;;;11.75;7.28;;;;;;;;;;5023613;28;20014;-77
2021/12/25 05:45:48;;;;;;;18.35;10.30;;;;;;;;;;5023967;28;20389;-77
2021/12/25 05:48:14;;;;;;;12.95;7.45;;;;;;;;;;5029894;28;20119;-78
2021/12/25 05:50:40;;;;;;;32.72;19.08;;;;;;;;;;5038472;28;20033;-77
2021/12/25 05:53:06;;;;;;;13.20;7.90;;;;;;;;;;5039724;28;20041;-77
2021/12/25 05:55:33;;;;;;;9.93;5.80;;;;;;;;;;5043270;28;20079;-77
2021/12/25 05:57:59;;;;;;;9.85;5.10;;;;;;;;;;5041155;28;20034;-78
2021/12/25 06:00:25;;;;;;;7.95;4.72;;;;;;;;;;5033681;28;20022;-77
2021/12/25 06:02:51;;;;;;;7.65;5.05;;;;;;;;;;5032363;28;20108;-77
2021/12/25 06:05:18;;;;;;;7.95;5.10;;;;;;;;;;5041298;28;20013;-76
2021/12/25 06:07:44;;;;;;;10.43;6.63;;;;;;;;;;5048291;28;20338;-77
2021/12/25 06:10:11;;;;;;;9.57;6.45;;;;;;;;;;5039509;28;20030;-77
2021/12/25 06:12:37;;;;;;;8.27;4.90;;;;;;;;;;5032683;28;20033;-76
2021/12/25 06:15:05;;;;;;;9.88;5.18;;;;;;;;;;5032588;28;20021;-76
2021/12/25 06:17:32;;;;;;;8.32;5.32;;;;;;;;;;5031267;28;20068;-78
2021/12/25 06:19:58;;;;;;;9.10;4.88;;;;;;;;;;5029480;28;20104;-76
2021/12/25 06:22:24;;;;;;;9.48;5.20;;;;;;;;;;5031290;28;20033;-76
2021/12/25 06:24:50;;;;;;;8.80;5.18;;;;;;;;;;5049731;28;20021;-75
2021/12/25 06:27:17;;;;;;;10.00;5.35;;;;;;;;;;5029057;28;20047;-76
2021/12/25 06:29:43;;;;;;;8.95;5.30;;;;;;;;;;5032922;28;20057;-76
2021/12/25 06:32:10;;;;;;;9.48;5.50;;;;;;;;;;5032073;28;20505;-76
2021/12/25 06:34:36;;;;;;;10.52;5.93;;;;;;;;;;5032404;28;20061;-77
2021/12/25 06:37:02;;;;;;;9.10;5.95;;;;;;;;;;5032395;28;20060;-76
2021/12/25 06:39:29;;;;;;;9.38;4.95;;;;;;;;;;5025035;28;20018;-76
2021/12/25 06:41:55;;;;;;;9.38;5.30;;;;;;;;;;5029405;28;20067;-76
2021/12/25 06:44:24;;;;;;;8.20;5.10;;;;;;;;;;5032460;28;20033;-77
2021/12/25 06:46:50;;;;;;;8.60;5.32;;;;;;;;;;5030677;28;20025;-76
2021/12/25 06:49:16;;;;;;;7.82;4.35;;;;;;;;;;5031356;28;20032;-77
2021/12/25 06:51:42;;;;;;;8.68;5.57;;;;;;;;;;5031845;28;20108;-76
2021/12/25 06:54:09;;;;;;;8.88;5.07;;;;;;;;;;5033003;28;20112;-76
2021/12/25 06:56:35;;;;;;;7.68;4.97;;;;;;;;;;5032626;28;20033;-77
2021/12/25 06:59:01;;;;;;;9.05;4.82;;;;;;;;;;5032066;28;20390;-76
2021/12/25 07:01:27;;;;;;;8.45;4.45;;;;;;;;;;5032537;28;20100;-76
2021/12/25 07:03:53;;;;;;;8.73;4.78;;;;;;;;;;5032774;28;20032;-77
2021/12/25 07:06:21;;;;;;;8.73;4.82;;;;;;;;;;5032097;28;20036;-76
2021/12/25 07:08:47;;;;;;;8.93;4.93;;;;;;;;;;5032549;28;20025;-78
2021/12/25 07:11:13;;;;;;;9.18;5.35;;;;;;;;;;5028373;28;20052;-77
2021/12/25 07:13:43;;;;;;;8.77;5.13;;;;;;;;;;5031926;28;20029;-77
2021/12/25 07:16:10;;;;;;;8.18;5.13;;;;;;;;;;5032744;28;20376;-77
2021/12/25 07:18:36;;;;;;;9.30;5.45;;;;;;;;;;5031434;28;20026;-77
2021/12/25 07:21:03;;;;;;;8.90;4.68;;;;;;;;;;5031888;28;20033;-76
2021/12/25 07:23:29;;;;;;;9.18;5.40;;;;;;;;;;5032492;28;20103;-76
2021/12/25 07:25:55;;;;;;;9.77;6.00;;;;;;;;;;5030961;28;20475;-76
2021/12/25 07:28:21;;;;;;;10.80;6.65;;;;;;;;;;5032572;28;20112;-76
2021/12/25 07:30:47;;;;;;;9.57;5.63;;;;;;;;;;5025902;28;20033;-77
2021/12/25 07:33:13;;;;;;;9.88;6.00;;;;;;;;;;5031489;28;20069;-76
2021/12/25 07:35:39;;;;;;;10.32;5.90;;;;;;;;;;5031634;28;20057;-76
2021/12/25 07:38:05;;;;;;;12.70;6.60;;;;;;;;;;5032507;28;20533;-77
2021/12/25 07:40:31;;;;;;;11.02;6.40;;;;;;;;;;5030761;28;20106;-77
2021/12/25 07:42:57;;;;;;;10.75;5.97;;;;;;;;;;5032272;28;20024;-76
2021/12/25 07:45:23;;;;;;;9.77;5.68;;;;;;;;;;5032085;28;20091;-77
2021/12/25 07:47:58;;;;;;;11.05;6.22;;;;;;;;;;5030607;28;20056;-77
2021/12/25 07:50:24;;;;;;;9.48;5.95;;;;;;;;;;5031728;28;20030;-77
2021/12/25 07:52:50;;;;;;;10.18;6.75;;;;;;;;;;5032020;28;20108;-77
2021/12/25 07:55:16;;;;;;;10.35;6.20;;;;;;;;;;5031814;28;20057;-77
2021/12/25 07:57:42;;;;;;;12.10;6.80;;;;;;;;;;5030860;28;20069;-77
2021/12/25 08:00:09;;;;;;;10.13;6.22;;;;;;;;;;5028510;28;20053;-78
2021/12/25 08:02:35;;;;;;;10.32;6.10;;;;;;;;;;5019040;28;20044;-77
2021/12/25 08:05:01;;;;;;;10.57;6.25;;;;;;;;;;5033527;28;20412;-78
2021/12/25 08:07:27;;;;;;;12.82;6.95;;;;;;;;;;5018094;28;20060;-78
2021/12/25 08:10:01;;;;;;;11.63;6.63;;;;;;;;;;5023559;28;20021;-79
2021/12/25 08:12:27;;;;;;;10.98;6.88;;;;;;;;;;5031605;28;20025;-78
2021/12/25 08:14:53;;;;;;;12.85;6.38;;;;;;;;;;5033162;28;20163;-78
2021/12/25 08:17:20;;;;;;;12.88;6.70;;;;;;;;;;5032425;28;20138;-78
2021/12/25 08:19:46;;;;;;;12.30;6.97;;;;;;;;;;5032914;28;20033;-78
2021/12/25 08:22:12;;;;;;;11.18;7.35;;;;;;;;;;5033362;28;20036;-77
2021/12/25 08:24:37;;;;;;;12.95;8.38;;;;;;;;;;5033431;28;20021;-78
2021/12/25 08:27:05;;;;;;;12.68;7.25;;;;;;;;;;5033131;28;20100;-78
2021/12/25 08:29:31;;;;;;;14.30;7.75;;;;;;;;;;5032326;28;20033;-77
2021/12/25 08:31:58;;;;;;;13.23;7.47;;;;;;;;;;5031647;28;20029;-77
2021/12/25 08:34:24;;;;;;;12.25;7.57;;;;;;;;;;5030022;28;20422;-77
2021/12/25 08:36:50;;;;;;;13.30;7.78;;;;;;;;;;5031370;28;20056;-77
2021/12/25 08:39:16;;;;;;;11.52;7.00;;;;;;;;;;5030543;28;20537;-77
2021/12/25 08:41:43;;;;;;;12.60;7.13;;;;;;;;;;5026200;28;20035;-77
2021/12/25 08:44:30;;;;;;;10.88;6.57;;;;;;;;;;5010738;28;20025;-76
2021/12/25 08:46:56;;;;;;;11.82;6.25;;;;;;;;;;5028716;28;20037;-77
2021/12/25 08:49:24;;;;;;;11.15;6.60;;;;;;;;;;5030197;28;20021;-77
2021/12/25 08:51:51;;;;;;;10.40;6.22;;;;;;;;;;5030101;28;20048;-76
2021/12/25 08:54:18;;;;;;;11.45;6.50;;;;;;;;;;5031648;28;20033;-77
2021/12/25 08:56:44;;;;;;;8.55;5.53;;;;;;;;;;5029003;28;20041;-76
2021/12/25 08:59:10;;;;;;;11.68;5.95;;;;;;;;;;5029507;28;20026;-77
2021/12/25 09:01:36;;;;;;;10.98;6.13;;;;;;;;;;5031314;28;20472;-77
2021/12/25 09:04:03;;;;;;;9.13;5.03;;;;;;;;;;5031091;28;20029;-77
2021/12/25 09:06:29;;;;;;;9.48;5.20;;;;;;;;;;5030829;28;20021;-77
2021/12/25 09:08:56;;;;;;;10.80;5.25;;;;;;;;;;5024131;28;20040;-77
2021/12/25 09:11:22;;;;;;;10.40;5.78;;;;;;;;;;5025263;28;20025;-77
2021/12/25 09:13:48;;;;;;;10.15;5.68;;;;;;;;;;5029253;28;20021;-77
2021/12/25 09:16:15;;;;;;;10.65;6.55;;;;;;;;;;5030938;28;20392;-77
2021/12/25 09:18:41;;;;;;;10.30;5.05;;;;;;;;;;5030824;28;20455;-77
2021/12/25 09:21:07;;;;;;;8.93;4.90;;;;;;;;;;5035516;28;20371;-78
2021/12/25 09:23:33;;;;;;;9.88;5.97;;;;;;;;;;5029590;28;20025;-77
2021/12/25 09:25:59;;;;;;;10.48;4.97;;;;;;;;;;5024369;28;20403;-76
2021/12/25 09:28:25;;;;;;;9.15;5.72;;;;;;;;;;5034987;28;20337;-77
2021/12/25 09:30:51;;;;;;;8.50;4.60;;;;;;;;;;5034820;28;20507;-77
2021/12/25 09:33:18;;;;;;;10.02;5.80;;;;;;;;;;5035954;28;20022;-77
2021/12/25 09:35:44;;;;;;;9.98;5.82;;;;;;;;;;5034463;28;20029;-77
2021/12/25 09:38:10;;;;;;;11.40;5.60;;;;;;;;;;5036110;28;20029;-78
2021/12/25 09:40:38;;;;;;;9.55;5.60;;;;;;;;;;5035505;28;20495;-77
2021/12/25 09:43:04;;;;;;;8.93;4.93;;;;;;;;;;5035882;28;20060;-77
2021/12/25 09:45:30;;;;;;;10.90;5.60;;;;;;;;;;5034177;28;20100;-77
2021/12/25 09:47:56;;;;;;;9.00;4.95;;;;;;;;;;5027625;28;20030;-77
2021/12/25 09:50:22;;;;;;;11.52;6.00;;;;;;;;;;5036080;28;20151;-77
2021/12/25 09:52:48;;;;;;;13.30;5.93;;;;;;;;;;5035693;28;20072;-78
2021/12/25 09:55:15;;;;;;;11.25;6.20;;;;;;;;;;5035269;28;20448;-77
2021/12/25 09:57:41;;;;;;;10.10;5.40;;;;;;;;;;5035139;28;20093;-77
2021/12/25 10:00:12;;;;;;;9.63;6.20;;;;;;;;;;5035969;28;20087;-77
2021/12/25 10:02:42;;;;;;;8.93;4.78;;;;;;;;;;5037111;28;20049;-78
2021/12/25 10:05:10;;;;;;;10.10;5.57;;;;;;;;;;5035660;28;20434;-78
2021/12/25 10:07:36;;;;;;;10.02;5.70;;;;;;;;;;5036892;28;20033;-78
2021/12/25 10:10:07;;;;;;;10.18;5.65;;;;;;;;;;5033447;28;20045;-77
2021/12/25 10:12:42;;;;;;;10.18;5.55;;;;;;;;;;5030073;28;20028;-77
2021/12/25 10:15:11;;;;;;;10.93;6.30;;;;;;;;;;5033548;28;20515;-80
2021/12/25 10:17:44;;;;;;;10.25;5.60;;;;;;;;;;5033851;28;20457;-77
2021/12/25 10:20:11;;;;;;;10.57;6.28;;;;;;;;;;5027103;28;20021;-76
2021/12/25 10:22:55;;;;;;;10.00;5.70;;;;;;;;;;5033432;28;20025;-77
2021/12/25 10:25:21;;;;;;;10.82;5.90;;;;;;;;;;5032994;28;20025;-77
2021/12/25 10:27:52;;;;;;;9.32;5.50;;;;;;;;;;5033701;28;20033;-77
2021/12/25 10:30:18;;;;;;;10.55;5.82;;;;;;;;;;5032030;28;20056;-76
2021/12/25 10:32:44;;;;;;;11.93;5.80;;;;;;;;;;5033837;28;20029;-77
2021/12/25 10:35:14;;;;;;;11.43;6.30;;;;;;;;;;5034043;28;20544;-77
2021/12/25 10:37:41;;;;;;;10.80;6.70;;;;;;;;;;5038421;28;20040;-77
2021/12/25 10:40:18;;;;;;;11.60;7.15;;;;;;;;;;5041858;28;20036;-77
2021/12/25 10:42:45;;;;;;;11.23;6.40;;;;;;;;;;5041449;28;20468;-77
2021/12/25 10:45:14;;;;;;;10.80;6.88;;;;;;;;;;5035220;28;20025;-77
2021/12/25 10:47:41;;;;;;;11.50;6.78;;;;;;;;;;5034439;28;20037;-78
2021/12/25 10:50:14;;;;;;;12.15;6.63;;;;;;;;;;5033898;28;20036;-77
2021/12/25 10:52:44;;;;;;;12.50;6.85;;;;;;;;;;5030855;28;20037;-78
2021/12/25 10:55:19;;;;;;;12.07;6.35;;;;;;;;;;5032969;28;20049;-78
2021/12/25 10:57:45;;;;;;;12.63;7.57;;;;;;;;;;5034230;28;20083;-77
2021/12/25 11:00:13;;;;;;;14.73;7.10;;;;;;;;;;5033445;28;20463;-77
2021/12/25 11:02:44;;;;;;;15.30;7.55;;;;;;;;;;5032185;28;20033;-77
2021/12/25 11:05:16;;;;;;;12.77;7.40;;;;;;;;;;5034427;28;20349;-77
2021/12/25 11:07:42;;;;;;;14.15;7.88;;;;;;;;;;5034596;28;20563;-78
2021/12/25 11:10:16;;;;;;;12.95;7.35;;;;;;;;;;5025894;28;20026;-78
2021/12/25 11:12:42;;;;;;;12.45;7.47;;;;;;;;;;5022179;28;20026;-77
2021/12/25 11:15:19;;;;;;;13.52;7.53;;;;;;;;;;5023340;28;20026;-78
2021/12/25 11:17:53;;;;;;;12.20;6.95;;;;;;;;;;5033867;28;20129;-76
2021/12/25 11:20:37;;;;;;;15.95;8.52;;;;;;;;;;5032701;28;20026;-76
2021/12/25 11:23:05;;;;;;;13.63;8.15;;;;;;;;;;5032001;28;20037;-74
2021/12/25 11:25:32;;;;;;;16.13;8.18;;;;;;;;;;5026344;28;20480;-74
2021/12/25 11:27:58;;;;;;;13.95;7.88;;;;;;;;;;5031947;28;20033;-74
2021/12/25 11:30:26;;;;;;;13.63;7.72;;;;;;;;;;5029214;28;20492;-75
2021/12/25 11:32:53;;;;;;;15.02;8.65;;;;;;;;;;5032188;28;20100;-75
2021/12/25 11:35:19;;;;;;;13.82;8.35;;;;;;;;;;5031460;28;20498;-75
2021/12/25 11:37:45;;;;;;;15.00;8.07;;;;;;;;;;5018591;28;20037;-75
2021/12/25 11:40:12;;;;;;;15.00;8.45;;;;;;;;;;5031726;28;20124;-75
2021/12/25 11:42:43;;;;;;;12.20;7.18;;;;;;;;;;5030966;28;20082;-75
2021/12/25 11:45:20;;;;;;;13.68;7.22;;;;;;;;;;5021011;28;20417;-75
2021/12/25 11:47:47;;;;;;;12.35;6.57;;;;;;;;;;5013998;28;20022;-75
2021/12/25 11:50:18;;;;;;;15.23;8.07;;;;;;;;;;5029924;28;20052;-75
2021/12/25 11:52:52;;;;;;;14.05;7.65;;;;;;;;;;5024188;28;20792;-74
2021/12/25 11:58:21;;;;;;;15.32;9.00;;;;;;;;;;5015175;28;20496;-75
2021/12/25 12:00:49;;;;;;;14.63;7.88;;;;;;;;;;5027872;28;20028;-76
2021/12/25 12:03:34;;;;;;;14.10;7.63;;;;;;;;;;5029878;28;20403;-75
2021/12/25 12:06:00;;;;;;;15.38;7.97;;;;;;;;;;5020750;28;20030;-74
2021/12/25 12:08:26;;;;;;;12.68;6.68;;;;;;;;;;5025290;28;20566;-74
2021/12/25 12:10:56;;;;;;;15.73;7.85;;;;;;;;;;5026364;28;20034;-75
2021/12/25 12:13:29;;;;;;;15.63;8.05;;;;;;;;;;5031467;28;20112;-75
2021/12/25 12:16:00;;;;;;;13.57;7.30;;;;;;;;;;5019898;28;20109;-75
2021/12/25 12:18:27;;;;;;;14.27;7.38;;;;;;;;;;5025772;28;20590;-75
2021/12/25 12:21:04;;;;;;;12.95;8.35;;;;;;;;;;5028282;28;20025;-74
2021/12/25 12:26:36;;;;;;;15.15;8.32;;;;;;;;;;5025533;28;20402;-74
2021/12/25 12:29:02;;;;;;;13.52;7.40;;;;;;;;;;5016619;28;20021;-75
2021/12/25 12:31:37;;;;;;;13.82;8.20;;;;;;;;;;5026888;28;20355;-75
2021/12/25 12:34:23;;;;;;;13.27;7.82;;;;;;;;;;5029570;28;20053;-75
2021/12/25 12:36:51;;;;;;;15.02;7.13;;;;;;;;;;5021598;28;20516;-75
2021/12/25 12:39:19;;;;;;;13.00;6.85;;;;;;;;;;5026628;28;20033;-75
2021/12/25 12:41:53;;;;;;;14.25;7.28;;;;;;;;;;5022418;28;20112;-75
2021/12/25 12:44:26;;;;;;;15.43;7.88;;;;;;;;;;5028430;28;20452;-75
2021/12/25 12:46:58;;;;;;;14.13;7.20;;;;;;;;;;5026138;28;20565;-75
2021/12/25 12:49:28;;;;;;;14.50;7.57;;;;;;;;;;5013956;28;20082;-75
2021/12/25 12:52:13;;;;;;;12.73;6.93;;;;;;;;;;5030320;28;20124;-74
2021/12/25 12:54:47;;;;;;;14.55;7.25;;;;;;;;;;5027506;28;20036;-75
2021/12/25 12:57:32;;;;;;;16.73;7.32;;;;;;;;;;5027115;28;20108;-75
2021/12/25 13:00:00;;;;;;;13.85;7.07;;;;;;;;;;5028154;28;20426;-75
2021/12/25 13:02:27;;;;;;;15.18;6.93;;;;;;;;;;5024068;28;20033;-75
2021/12/25 13:04:57;;;;;;;14.18;7.05;;;;;;;;;;5028153;28;20025;-75
2021/12/25 13:07:23;;;;;;;13.30;6.70;;;;;;;;;;5029728;28;20049;-76
2021/12/25 13:10:03;;;;;;;13.85;7.53;;;;;;;;;;5030325;28;20099;-75
2021/12/25 13:12:44;;;;;;;12.18;6.25;;;;;;;;;;5030355;28;20056;-75
2021/12/25 13:15:32;;;;;;;12.88;6.85;;;;;;;;;;5019353;28;20030;-75
2021/12/25 13:17:59;;;;;;;12.55;6.20;;;;;;;;;;5029935;28;20033;-75
2021/12/25 13:20:36;;;;;;;10.73;5.93;;;;;;;;;;5021526;28;20049;-75
2021/12/25 13:23:03;;;;;;;12.57;6.82;;;;;;;;;;5028593;28;20025;-75
2021/12/25 13:25:29;;;;;;;13.00;6.65;;;;;;;;;;5030086;28;20026;-76
2021/12/25 13:28:00;;;;;;;13.32;6.43;;;;;;;;;;5023429;28;20024;-74
2021/12/25 13:30:27;;;;;;;13.27;7.30;;;;;;;;;;5026726;28;20087;-75
2021/12/25 13:32:54;;;;;;;14.48;7.63;;;;;;;;;;5024554;28;20029;-75
2021/12/25 13:35:24;;;;;;;12.50;6.68;;;;;;;;;;5029183;28;20537;-76
2021/12/25 13:37:57;;;;;;;14.23;6.93;;;;;;;;;;5025912;28;20030;-75
2021/12/25 13:40:24;;;;;;;14.15;7.78;;;;;;;;;;5028774;28;20040;-75
2021/12/25 13:42:51;;;;;;;13.57;7.22;;;;;;;;;;5029118;28;20052;-75
2021/12/25 13:45:18;;;;;;;15.32;7.40;;;;;;;;;;5029698;28;20498;-76
2021/12/25 13:47:44;;;;;;;14.70;8.63;;;;;;;;;;5028925;28;20041;-76
2021/12/25 13:50:11;;;;;;;13.77;8.15;;;;;;;;;;5019911;28;20033;-75
2021/12/25 13:52:38;;;;;;;16.55;8.35;;;;;;;;;;5031904;28;20049;-75
2021/12/25 13:55:21;;;;;;;14.32;7.47;;;;;;;;;;5025329;28;20036;-76
2021/12/25 13:57:49;;;;;;;13.70;7.05;;;;;;;;;;5019936;28;20026;-77
2021/12/25 14:00:35;;;;;;;15.50;6.85;;;;;;;;;;5023156;28;20029;-77
2021/12/25 14:03:07;;;;;;;13.52;7.63;;;;;;;;;;5026056;28;20025;-77
2021/12/25 14:05:36;;;;;;;12.70;7.07;;;;;;;;;;5025251;28;20110;-78
2021/12/25 14:08:02;;;;;;;12.85;6.63;;;;;;;;;;5017528;28;20433;-76
2021/12/25 14:10:29;;;;;;;12.25;6.85;;;;;;;;;;5029276;28;20033;-77
2021/12/25 14:12:57;;;;;;;12.40;6.85;;;;;;;;;;5025517;28;20055;-76
2021/12/25 14:15:25;;;;;;;15.95;7.55;;;;;;;;;;5053044;28;20022;-77
2021/12/25 14:17:51;;;;;;;14.05;7.65;;;;;;;;;;5030340;28;20112;-77
2021/12/25 14:20:25;;;;;;;15.00;7.95;;;;;;;;;;5033159;28;20029;-77
2021/12/25 14:22:59;;;;;;;13.77;7.25;;;;;;;;;;5033892;28;20036;-77
2021/12/25 14:25:27;;;;;;;14.50;7.30;;;;;;;;;;5033479;28;20033;-77
2021/12/25 14:28:04;;;;;;;11.57;6.75;;;;;;;;;;5029159;28;20046;-78
2021/12/25 14:30:31;;;;;;;13.48;7.32;;;;;;;;;;5027255;28;20440;-77
2021/12/25 14:32:57;;;;;;;13.32;8.05;;;;;;;;;;5033814;28;20448;-78
2021/12/25 14:35:23;;;;;;;14.38;7.65;;;;;;;;;;5034148;28;20406;-77
2021/12/25 14:37:54;;;;;;;14.68;7.82;;;;;;;;;;5033394;28;20021;-77
2021/12/25 14:40:22;;;;;;;13.15;7.65;;;;;;;;;;5033425;28;20048;-77
2021/12/25 14:42:50;;;;;;;13.85;7.75;;;;;;;;;;5028219;28;20416;-78
2021/12/25 14:45:17;;;;;;;12.75;7.25;;;;;;;;;;5019035;28;20498;-77
2021/12/25 14:47:54;;;;;;;13.52;7.43;;;;;;;;;;5032366;28;20030;-77
2021/12/25 14:50:22;;;;;;;14.75;7.28;;;;;;;;;;5025288;28;20115;-76
2021/12/25 14:53:04;;;;;;;12.90;7.10;;;;;;;;;;5032193;28;20045;-77
2021/12/25 14:55:33;;;;;;;16.33;8.95;;;;;;;;;;5031457;28;20479;-77
2021/12/25 14:58:07;;;;;;;13.95;7.78;;;;;;;;;;5032260;28;20079;-77
2021/12/25 15:00:34;;;;;;;13.50;6.60;;;;;;;;;;5032532;28;20033;-77
2021/12/25 15:03:14;;;;;;;11.40;6.88;;;;;;;;;;5032993;28;20025;-77
2021/12/25 15:05:41;;;;;;;14.25;6.82;;;;;;;;;;5032592;28;20025;-77
2021/12/25 15:08:17;;;;;;;14.05;7.28;;;;;;;;;;5029678;28;20076;-77
2021/12/25 15:10:43;;;;;;;12.80;6.47;;;;;;;;;;5026377;28;20112;-77
2021/12/25 15:13:18;;;;;;;14.75;7.22;;;;;;;;;;5032788;28;20036;-77
2021/12/25 15:15:51;;;;;;;12.30;6.38;;;;;;;;;;5032931;28;20033;-77
2021/12/25 15:18:25;;;;;;;12.52;7.30;;;;;;;;;;5033763;28;20021;-77
2021/12/25 15:21:10;;;;;;;13.95;6.45;;;;;;;;;;5036382;28;20052;-77
2021/12/25 15:23:36;;;;;;;13.63;6.80;;;;;;;;;;5033472;28;20038;-77
2021/12/25 15:26:05;;;;;;;11.13;5.63;;;;;;;;;;5031022;28;20025;-77
2021/12/25 15:28:31;;;;;;;10.38;5.82;;;;;;;;;;5032113;28;20040;-78
2021/12/25 15:30:57;;;;;;;12.63;6.13;;;;;;;;;;5032429;28;20029;-77
2021/12/25 15:33:24;;;;;;;8.95;4.70;;;;;;;;;;5031546;28;20424;-77
2021/12/25 15:35:52;;;;;;;10.88;4.90;;;;;;;;;;5030340;28;20033;-77
2021/12/25 15:38:28;;;;;;;8.50;3.90;;;;;;;;;;5031917;28;20071;-77
2021/12/25 15:40:55;;;;;;;8.80;4.80;;;;;;;;;;5031922;28;20045;-77
2021/12/25 15:43:21;;;;;;;10.02;5.40;;;;;;;;;;5031213;28;20379;-76
2021/12/25 15:45:48;;;;;;;10.35;5.05;;;;;;;;;;5014368;28;20100;-76
2021/12/25 15:48:14;;;;;;;10.77;4.97;;;;;;;;;;5030763;28;20057;-77
2021/12/25 15:50:40;;;;;;;9.38;5.25;;;;;;;;;;5029627;28;20026;-76
2021/12/25 15:53:06;;;;;;;9.43;5.18;;;;;;;;;;5027892;28;20037;-77
2021/12/25 15:55:33;;;;;;;12.50;5.65;;;;;;;;;;5031263;28;20037;-76
2021/12/25 15:58:06;;;;;;;11.10;5.20;;;;;;;;;;5030806;28;20036;-76
2021/12/25 16:00:36;;;;;;;12.00;5.93;;;;;;;;;;5030781;28;20083;-76
2021/12/25 16:03:02;;;;;;;11.70;5.82;;;;;;;;;;5023827;28;20384;-77